createdAt,value
2018-12-06T00:01:42.479Z,-1.37
2018-12-06T00:04:12.030Z,-1.33
2018-12-06T00:06:43.064Z,-1.13
2018-12-06T00:09:13.296Z,-1.12
2018-12-06T00:11:44.079Z,-1.13
2018-12-06T00:14:14.129Z,-1.10
2018-12-06T00:16:54.449Z,-0.90
2018-12-06T00:19:24.954Z,-0.89
2018-12-06T00:21:55.222Z,-0.92
2018-12-06T00:24:26.293Z,-0.90
2018-12-06T00:26:57.358Z,-0.85
2018-12-06T00:29:27.932Z,-0.88
2018-12-06T00:31:58.188Z,-0.84
2018-12-06T00:34:29.042Z,-0.72
2018-12-06T00:37:00.172Z,-0.75
2018-12-06T00:39:30.477Z,-0.76
2018-12-06T00:42:05.025Z,-0.70
2018-12-06T00:44:37.049Z,-0.65
2018-12-06T00:47:09.218Z,-0.59
2018-12-06T00:49:39.262Z,-0.45
2018-12-06T00:52:10.296Z,-0.38
2018-12-06T00:54:41.408Z,-0.37
2018-12-06T00:57:11.241Z,-0.41
2018-12-06T00:59:41.272Z,-0.25
2018-12-06T01:02:12.428Z,-0.22
2018-12-06T01:04:43.255Z,-0.08
2018-12-06T01:07:13.424Z,-0.14
2018-12-06T01:09:44.610Z,-0.14
2018-12-06T01:12:14.486Z,-0.12
2018-12-06T01:14:45.293Z,-0.05
2018-12-06T01:17:16.581Z,-0.09
2018-12-06T01:19:46.228Z,0.02
2018-12-06T01:22:17.497Z,0.01
2018-12-06T01:24:48.349Z,0.25
2018-12-06T01:27:18.269Z,0.39
2018-12-06T01:29:49.341Z,0.51
2018-12-06T01:32:21.305Z,0.62
2018-12-06T01:34:51.432Z,0.58
2018-12-06T01:37:21.448Z,0.73
2018-12-06T01:39:52.537Z,0.69
2018-12-06T01:42:24.337Z,0.73
2018-12-06T01:44:54.452Z,0.70
2018-12-06T01:47:28.214Z,0.70
2018-12-06T01:49:58.516Z,0.66
2018-12-06T01:52:29.441Z,0.58
2018-12-06T01:55:00.518Z,0.61
2018-12-06T01:57:30.738Z,0.65
2018-12-06T02:00:01.582Z,0.57
2018-12-06T02:02:31.170Z,0.52
2018-12-06T02:05:08.467Z,0.55
2018-12-06T02:07:41.702Z,0.39
2018-12-06T02:10:13.530Z,0.63
2018-12-06T02:12:47.555Z,0.55
2018-12-06T02:15:19.701Z,0.62
2018-12-06T02:17:50.673Z,0.63
2018-12-06T02:20:22.909Z,0.61
2018-12-06T02:22:54.814Z,0.61
2018-12-06T02:25:25.813Z,0.60
2018-12-06T02:27:56.681Z,0.50
2018-12-06T02:30:27.750Z,0.62
2018-12-06T02:32:57.608Z,0.53
2018-12-06T02:35:28.848Z,0.58
2018-12-06T02:37:59.730Z,0.58
2018-12-06T02:40:29.703Z,0.62
2018-12-06T02:43:03.457Z,0.56
2018-12-06T02:45:34.540Z,0.62
2018-12-06T02:48:05.760Z,0.63
2018-12-06T02:50:36.497Z,0.71
2018-12-06T02:53:06.811Z,0.71
2018-12-06T02:55:37.778Z,0.74
2018-12-06T02:58:08.469Z,0.63
2018-12-06T03:00:39.214Z,0.53
2018-12-06T03:03:09.913Z,0.69
2018-12-06T03:05:39.902Z,0.73
2018-12-06T03:08:10.957Z,0.75
2018-12-06T03:10:41.581Z,0.77
2018-12-06T03:13:11.778Z,0.74
2018-12-06T03:15:42.982Z,0.71
2018-12-06T03:18:13.034Z,0.71
2018-12-06T03:20:42.976Z,0.66
2018-12-06T03:23:14.647Z,0.47
2018-12-06T03:25:45.225Z,0.80
2018-12-06T03:28:15.747Z,0.91
2018-12-06T03:30:45.931Z,0.82
2018-12-06T03:33:17.092Z,0.89
2018-12-06T03:35:47.849Z,0.93
2018-12-06T03:38:18.545Z,0.86
2018-12-06T03:40:48.969Z,0.91
2018-12-06T03:43:20.063Z,0.82
2018-12-06T03:45:51.021Z,0.82
2018-12-06T03:48:20.933Z,0.79
2018-12-06T03:50:52.028Z,0.71
2018-12-06T03:53:23.149Z,0.72
2018-12-06T03:55:54.011Z,0.69
2018-12-06T03:58:25.058Z,0.69
2018-12-06T04:00:55.613Z,0.65
2018-12-06T04:03:25.978Z,0.67
2018-12-06T04:05:56.866Z,0.78
2018-12-06T04:08:27.429Z,0.67
2018-12-06T04:10:57.657Z,0.59
2018-12-06T04:13:28.132Z,0.66
2018-12-06T04:15:59.193Z,0.66
2018-12-06T04:18:30.268Z,0.65
2018-12-06T04:21:00.163Z,0.74
2018-12-06T04:23:30.707Z,0.62
2018-12-06T04:26:01.106Z,0.61
2018-12-06T04:28:30.694Z,0.78
2018-12-06T04:31:02.892Z,0.75
2018-12-06T04:33:33.958Z,0.79
2018-12-06T04:36:04.234Z,0.73
2018-12-06T04:38:34.157Z,0.67
2018-12-06T04:41:05.413Z,0.73
2018-12-06T04:43:36.465Z,0.71
2018-12-06T04:46:06.949Z,0.73
2018-12-06T04:48:37.704Z,0.75
2018-12-06T04:51:08.298Z,0.78
2018-12-06T04:53:39.454Z,0.75
2018-12-06T04:56:10.268Z,0.77
2018-12-06T04:58:40.250Z,0.80
2018-12-06T05:01:11.309Z,0.95
2018-12-06T05:03:44.989Z,1.08
2018-12-06T05:06:16.291Z,1.10
2018-12-06T05:08:46.204Z,1.09
2018-12-06T05:11:17.375Z,1.09
2018-12-06T05:13:48.410Z,1.13
2018-12-06T05:16:18.434Z,1.10
2018-12-06T05:18:49.293Z,1.03
2018-12-06T05:21:19.248Z,1.12
2018-12-06T05:23:50.347Z,1.19
2018-12-06T05:26:20.444Z,1.30
2018-12-06T05:28:52.228Z,1.26
2018-12-06T05:31:23.163Z,1.35
2018-12-06T05:33:52.683Z,1.41
2018-12-06T05:36:23.730Z,1.38
2018-12-06T05:38:54.565Z,1.40
2018-12-06T05:41:24.616Z,1.43
2018-12-06T05:43:56.545Z,1.51
2018-12-06T05:46:26.469Z,1.63
2018-12-06T05:48:58.532Z,1.56
2018-12-06T05:51:30.578Z,1.65
2018-12-06T05:54:01.715Z,1.56
2018-12-06T05:56:31.266Z,1.47
2018-12-06T05:59:03.616Z,1.59
2018-12-06T06:01:34.501Z,1.64
2018-12-06T06:04:04.569Z,1.50
2018-12-06T06:06:34.728Z,1.49
2018-12-06T06:09:07.852Z,1.42
2018-12-06T06:11:37.666Z,1.22
2018-12-06T06:14:07.759Z,1.19
2018-12-06T06:16:37.761Z,1.16
2018-12-06T06:19:08.651Z,1.23
2018-12-06T06:21:39.675Z,1.35
2018-12-06T06:24:09.832Z,1.27
2018-12-06T06:26:40.806Z,1.32
2018-12-06T06:29:10.714Z,1.42
2018-12-06T06:31:42.795Z,1.52
2018-12-06T06:34:14.793Z,1.49
2018-12-06T06:36:45.752Z,1.45
2018-12-06T06:39:18.052Z,1.45
2018-12-06T06:41:49.813Z,1.51
2018-12-06T06:44:21.769Z,1.62
2018-12-06T06:46:53.783Z,1.59
2018-12-06T06:49:24.772Z,1.64
2018-12-06T06:51:55.837Z,1.67
2018-12-06T06:54:26.329Z,1.71
2018-12-06T06:56:56.732Z,1.85
2018-12-06T06:59:27.861Z,1.91
2018-12-06T07:01:58.705Z,1.97
2018-12-06T07:04:28.835Z,2.07
2018-12-06T07:07:00.057Z,2.02
2018-12-06T07:09:30.852Z,2.06
2018-12-06T07:12:01.572Z,2.01
2018-12-06T07:14:31.302Z,1.99
2018-12-06T07:17:04.117Z,2.10
2018-12-06T07:19:33.897Z,2.14
2018-12-06T07:22:03.989Z,2.14
2018-12-06T07:24:35.067Z,2.16
2018-12-06T07:27:05.681Z,2.20
2018-12-06T07:29:36.234Z,2.18
2018-12-06T07:32:07.198Z,2.21
2018-12-06T07:34:37.100Z,2.18
2018-12-06T07:37:07.685Z,2.22
2018-12-06T07:39:38.717Z,2.25
2018-12-06T07:42:08.877Z,2.33
2018-12-06T07:44:40.100Z,2.41
2018-12-06T07:47:10.485Z,2.50
2018-12-06T07:49:40.073Z,2.47
2018-12-06T07:52:11.699Z,2.59
2018-12-06T07:54:42.388Z,2.61
2018-12-06T07:57:12.920Z,2.65
2018-12-06T07:59:43.856Z,2.68
2018-12-06T08:02:14.524Z,2.68
2018-12-06T08:04:45.508Z,2.69
2018-12-06T08:07:21.946Z,2.66
2018-12-06T08:09:53.168Z,2.63
2018-12-06T08:12:23.211Z,2.70
2018-12-06T08:14:55.568Z,2.69
2018-12-06T08:17:25.241Z,2.70
2018-12-06T08:20:33.301Z,2.85
2018-12-06T08:23:03.304Z,2.92
2018-12-06T08:25:34.268Z,2.94
2018-12-06T08:28:04.308Z,3.03
2018-12-06T08:30:34.271Z,3.13
2018-12-06T08:33:05.581Z,3.11
2018-12-06T08:35:37.327Z,3.18
2018-12-06T08:38:09.375Z,3.12
2018-12-06T08:40:40.411Z,3.12
2018-12-06T08:43:10.305Z,3.22
2018-12-06T08:45:40.300Z,3.31
2018-12-06T08:48:12.319Z,3.47
2018-12-06T08:53:14.788Z,3.58
2018-12-06T08:55:44.306Z,3.74
2018-12-06T08:58:14.449Z,3.76
2018-12-06T09:00:45.745Z,3.73
2018-12-06T09:03:16.582Z,3.67
2018-12-06T09:05:47.131Z,3.78
2018-12-06T09:08:17.541Z,3.74
2018-12-06T09:10:51.690Z,3.83
2018-12-06T09:13:23.058Z,3.89
2018-12-06T09:15:53.592Z,3.78
2018-12-06T09:18:24.644Z,3.97
2018-12-06T09:20:57.395Z,4.21
2018-12-06T09:23:29.461Z,4.20
2018-12-06T09:25:59.575Z,4.31
2018-12-06T09:28:31.118Z,4.54
2018-12-06T09:31:03.494Z,4.66
2018-12-06T09:33:41.220Z,4.75
2018-12-06T09:36:11.524Z,4.73
2018-12-06T09:38:41.895Z,4.63
2018-12-06T09:41:12.396Z,4.50
2018-12-06T09:43:43.325Z,4.59
2018-12-06T09:46:13.709Z,4.52
2018-12-06T09:48:44.165Z,4.44
2018-12-06T09:51:14.670Z,4.56
2018-12-06T09:53:45.665Z,4.51
2018-12-06T09:56:16.391Z,4.59
2018-12-06T09:58:46.611Z,4.71
2018-12-06T10:01:19.077Z,4.86
2018-12-06T10:03:48.719Z,4.90
2018-12-06T10:06:18.734Z,4.98
2018-12-06T10:08:49.806Z,5.01
2018-12-06T10:11:20.814Z,5.00
2018-12-06T10:13:51.844Z,4.92
2018-12-06T10:16:22.584Z,4.98
2018-12-06T10:18:53.439Z,4.89
2018-12-06T10:21:23.889Z,4.76
2018-12-06T10:23:54.982Z,4.60
2018-12-06T10:26:28.814Z,4.57
2018-12-06T10:28:59.954Z,4.42
2018-12-06T10:31:29.900Z,4.39
2018-12-06T10:34:00.818Z,4.58
2018-12-06T10:36:30.796Z,4.45
2018-12-06T10:39:02.045Z,4.44
2018-12-06T10:41:31.676Z,4.59
2018-12-06T10:44:03.133Z,4.69
2018-12-06T10:46:34.753Z,4.65
2018-12-06T10:49:06.469Z,4.58
2018-12-06T10:51:44.299Z,4.63
2018-12-06T10:54:16.893Z,4.83
2018-12-06T10:56:48.077Z,4.95
2018-12-06T10:59:18.940Z,4.93
2018-12-06T11:01:55.362Z,4.94
2018-12-06T11:04:32.193Z,5.01
2018-12-06T11:07:04.130Z,5.07
2018-12-06T11:09:37.121Z,5.00
2018-12-06T11:12:08.414Z,4.76
2018-12-06T11:14:38.840Z,4.57
2018-12-06T11:17:09.030Z,4.67
2018-12-06T11:19:40.313Z,4.58
2018-12-06T11:22:11.093Z,4.63
2018-12-06T11:24:41.723Z,4.75
2018-12-06T11:27:13.463Z,4.70
2018-12-06T11:29:43.799Z,4.68
2018-12-06T11:32:18.041Z,4.69
2018-12-06T11:34:48.346Z,4.71
2018-12-06T11:37:18.351Z,4.79
2018-12-06T11:39:52.488Z,4.89
2018-12-06T11:42:23.504Z,4.79
2018-12-06T11:44:53.213Z,4.82
2018-12-06T11:47:25.343Z,4.86
2018-12-06T11:49:55.872Z,4.86
2018-12-06T11:52:28.447Z,4.90
2018-12-06T11:54:59.467Z,4.85
2018-12-06T11:57:30.246Z,4.80
2018-12-06T12:00:00.404Z,4.79
2018-12-06T12:02:35.137Z,4.72
2018-12-06T12:05:05.655Z,4.85
2018-12-06T12:07:37.436Z,4.75
2018-12-06T12:10:09.615Z,4.82
2018-12-06T12:12:40.696Z,4.90
2018-12-06T12:15:11.083Z,4.94
2018-12-06T12:17:42.451Z,4.90
2018-12-06T12:20:12.565Z,4.71
2018-12-06T12:22:43.389Z,4.57
2018-12-06T12:25:14.347Z,4.49
2018-12-06T12:27:45.688Z,4.52
2018-12-06T12:30:15.426Z,4.54
2018-12-06T12:32:46.727Z,4.51
2018-12-06T12:37:54.624Z,4.35
2018-12-06T12:40:25.661Z,4.34
2018-12-06T12:42:55.580Z,4.17
2018-12-06T12:45:25.413Z,4.23
2018-12-06T12:47:57.696Z,4.25
2018-12-06T12:50:27.558Z,4.21
2018-12-06T12:52:58.617Z,4.14
2018-12-06T12:55:28.632Z,4.15
2018-12-06T12:57:59.634Z,3.98
2018-12-06T13:00:29.749Z,3.95
2018-12-06T13:03:01.239Z,3.94
2018-12-06T13:05:32.012Z,3.92
2018-12-06T13:08:01.612Z,3.98
2018-12-06T13:10:32.184Z,4.00
2018-12-06T13:13:04.533Z,3.94
2018-12-06T13:15:34.654Z,3.89
2018-12-06T13:18:04.826Z,3.88
2018-12-06T13:20:34.518Z,3.80
2018-12-06T13:23:05.850Z,3.78
2018-12-06T13:25:37.748Z,3.67
2018-12-06T13:28:08.169Z,3.57
2018-12-06T13:30:38.670Z,3.61
2018-12-06T13:33:09.822Z,3.60
2018-12-06T13:35:39.833Z,3.67
2018-12-06T13:38:11.630Z,3.62
2018-12-06T13:40:42.769Z,3.59
2018-12-06T13:43:14.783Z,3.66
2018-12-06T13:45:46.107Z,3.69
2018-12-06T13:48:16.161Z,3.61
2018-12-06T13:50:46.845Z,3.68
2018-12-06T13:53:16.895Z,3.50
2018-12-06T13:55:47.764Z,3.43
2018-12-06T13:58:18.110Z,3.40
2018-12-06T14:00:49.130Z,3.42
2018-12-06T14:03:23.632Z,3.26
2018-12-06T14:05:53.320Z,3.29
2018-12-06T14:08:23.797Z,3.23
2018-12-06T14:10:53.898Z,3.25
2018-12-06T14:13:25.138Z,3.13
2018-12-06T14:15:54.714Z,3.05
2018-12-06T14:18:26.957Z,3.13
2018-12-06T14:20:56.904Z,3.08
2018-12-06T14:23:27.057Z,3.12
2018-12-06T14:25:59.320Z,3.26
2018-12-06T14:28:31.397Z,3.14
2018-12-06T14:31:07.760Z,3.08
2018-12-06T14:33:39.156Z,3.01
2018-12-06T14:36:13.613Z,3.01
2018-12-06T14:38:43.959Z,2.96
2018-12-06T14:41:14.350Z,3.05
2018-12-06T14:43:45.011Z,3.03
2018-12-06T14:46:16.256Z,2.95
2018-12-06T14:48:47.023Z,2.95
2018-12-06T14:51:17.107Z,2.86
2018-12-06T14:53:48.048Z,3.00
2018-12-06T14:56:18.112Z,2.96
2018-12-06T14:58:50.438Z,2.87
2018-12-06T15:01:22.246Z,2.91
2018-12-06T15:03:52.983Z,2.86
2018-12-06T15:06:24.128Z,2.88
2018-12-06T15:08:54.135Z,2.79
2018-12-06T15:11:25.175Z,2.78
2018-12-06T15:13:55.101Z,2.83
2018-12-06T15:16:26.564Z,2.80
2018-12-06T15:18:57.178Z,2.80
2018-12-06T15:21:27.403Z,2.69
2018-12-06T15:23:58.221Z,2.65
2018-12-06T15:26:29.231Z,2.67
2018-12-06T15:29:00.304Z,2.72
2018-12-06T15:31:31.719Z,2.74
2018-12-06T15:34:01.240Z,2.63
2018-12-06T15:36:34.964Z,2.68
2018-12-06T15:39:08.415Z,2.66
2018-12-06T15:41:37.948Z,2.61
2018-12-06T15:44:07.591Z,2.58
2018-12-06T15:46:38.428Z,2.62
2018-12-06T15:49:09.424Z,2.65
2018-12-06T15:51:40.049Z,2.64
2018-12-06T15:54:10.828Z,2.63
2018-12-06T15:56:41.335Z,2.63
2018-12-06T15:59:11.875Z,2.60
2018-12-06T16:01:42.982Z,2.61
2018-12-06T16:04:12.681Z,2.64
2018-12-06T16:06:43.648Z,2.61
2018-12-06T16:09:14.107Z,2.52
2018-12-06T16:11:44.521Z,2.49
2018-12-06T16:14:15.451Z,2.53
2018-12-06T16:16:45.366Z,2.57
2018-12-06T16:19:16.527Z,2.58
2018-12-06T16:21:48.641Z,2.59
2018-12-06T16:24:18.547Z,2.56
2018-12-06T16:26:48.646Z,2.59
2018-12-06T16:29:18.333Z,2.58
2018-12-06T16:31:48.372Z,2.58
2018-12-06T16:34:19.583Z,2.57
2018-12-06T16:36:49.485Z,2.69
2018-12-06T16:39:20.653Z,2.61
2018-12-06T16:41:51.545Z,2.60
2018-12-06T16:44:22.669Z,2.64
2018-12-06T16:46:55.326Z,2.62
2018-12-06T16:49:26.746Z,2.67
2018-12-06T16:51:57.687Z,2.64
2018-12-06T16:54:30.863Z,2.71
2018-12-06T16:57:00.470Z,2.68
2018-12-06T16:59:32.254Z,2.67
2018-12-06T17:02:02.381Z,2.63
2018-12-06T17:04:33.361Z,2.67
2018-12-06T17:07:03.760Z,2.68
2018-12-06T17:09:33.925Z,2.67
2018-12-06T17:12:06.260Z,2.73
2018-12-06T17:14:38.483Z,2.71
2018-12-06T17:17:08.819Z,2.74
2018-12-06T17:19:39.800Z,2.76
2018-12-06T17:22:11.083Z,2.71
2018-12-06T17:24:40.730Z,2.67
2018-12-06T17:27:11.725Z,2.60
2018-12-06T17:29:41.669Z,2.67
2018-12-06T17:32:12.811Z,2.76
2018-12-06T17:34:42.820Z,2.71
2018-12-06T17:37:14.112Z,2.68
2018-12-06T17:39:44.643Z,2.69
2018-12-06T17:42:15.152Z,2.68
2018-12-06T17:44:45.900Z,2.66
2018-12-06T17:47:16.107Z,2.69
2018-12-06T17:49:47.310Z,2.66
2018-12-06T17:52:21.143Z,2.61
2018-12-06T17:54:50.968Z,2.58
2018-12-06T17:57:20.521Z,2.64
2018-12-06T17:59:57.652Z,2.59
2018-12-06T18:02:27.858Z,2.56
2018-12-06T18:05:02.626Z,2.51
2018-12-06T18:07:32.277Z,2.65
2018-12-06T18:10:01.870Z,2.59
2018-12-06T18:12:31.793Z,2.68
2018-12-06T18:15:03.981Z,2.66
2018-12-06T18:17:35.046Z,2.68
2018-12-06T18:20:10.124Z,2.61
2018-12-06T18:22:39.927Z,2.57
2018-12-06T18:25:10.043Z,2.57
2018-12-06T18:27:42.003Z,2.69
2018-12-06T18:30:13.954Z,2.60
2018-12-06T18:32:45.154Z,2.67
2018-12-06T18:35:15.155Z,2.63
2018-12-06T18:37:45.959Z,2.59
2018-12-06T18:40:17.113Z,2.54
2018-12-06T18:42:47.204Z,2.56
2018-12-06T18:45:18.150Z,2.52
2018-12-06T18:47:48.115Z,2.52
2018-12-06T18:50:19.432Z,2.53
2018-12-06T18:52:49.357Z,2.51
2018-12-06T18:55:19.919Z,2.52
2018-12-06T18:57:51.361Z,2.54
2018-12-06T19:00:21.504Z,2.56
2018-12-06T19:02:52.449Z,2.57
2018-12-06T19:05:23.052Z,2.63
2018-12-06T19:07:53.024Z,2.68
2018-12-06T19:10:22.894Z,2.65
2018-12-06T19:12:56.266Z,2.61
2018-12-06T19:15:28.236Z,2.65
2018-12-06T19:18:00.503Z,2.58
2018-12-06T19:20:30.311Z,2.59
2018-12-06T19:23:00.052Z,2.63
2018-12-06T19:25:32.431Z,2.62
2018-12-06T19:28:02.250Z,2.66
2018-12-06T19:30:32.193Z,2.59
2018-12-06T19:33:03.656Z,2.57
2018-12-06T19:35:38.214Z,2.64
2018-12-06T19:38:10.638Z,2.56
2018-12-06T19:40:40.956Z,2.56
2018-12-06T19:43:12.670Z,2.63
2018-12-06T19:45:42.195Z,2.60
2018-12-06T19:48:12.312Z,2.62
2018-12-06T19:50:42.911Z,2.61
2018-12-06T19:53:13.697Z,2.54
2018-12-06T19:55:44.374Z,2.51
2018-12-06T19:58:14.688Z,2.55
2018-12-06T20:00:44.391Z,2.61
2018-12-06T20:03:15.582Z,2.66
2018-12-06T20:05:46.468Z,2.68
2018-12-06T20:08:16.787Z,2.62
2018-12-06T20:10:47.920Z,2.65
2018-12-06T20:13:18.335Z,2.58
2018-12-06T20:15:48.955Z,2.57
2018-12-06T20:18:19.419Z,2.59
2018-12-06T20:20:50.749Z,2.54
2018-12-06T20:26:01.815Z,2.55
2018-12-06T20:28:31.513Z,2.57
2018-12-06T20:31:02.903Z,2.55
2018-12-06T20:33:32.590Z,2.58
2018-12-06T20:36:03.564Z,2.51
2018-12-06T20:38:35.585Z,2.51
2018-12-06T20:41:05.475Z,2.55
2018-12-06T20:43:35.697Z,2.60
2018-12-06T20:46:06.805Z,2.59
2018-12-06T20:48:38.576Z,2.56
2018-12-06T20:51:10.782Z,2.53
2018-12-06T20:53:42.231Z,2.51
2018-12-06T20:56:12.646Z,2.52
2018-12-06T20:58:45.789Z,2.51
2018-12-06T21:01:15.791Z,2.49
2018-12-06T21:03:46.989Z,2.58
2018-12-06T21:06:17.516Z,2.53
2018-12-06T21:08:47.749Z,2.65
2018-12-06T21:11:18.767Z,2.69
2018-12-06T21:13:49.573Z,2.62
2018-12-06T21:16:19.785Z,2.60
2018-12-06T21:18:50.907Z,2.57
2018-12-06T21:21:21.743Z,2.55
2018-12-06T21:23:51.643Z,2.63
2018-12-06T21:26:22.876Z,2.69
2018-12-06T21:28:53.651Z,2.68
2018-12-06T21:31:23.773Z,2.65
2018-12-06T21:33:54.930Z,2.63
2018-12-06T21:36:24.862Z,2.61
2018-12-06T21:38:56.669Z,2.66
2018-12-06T21:41:27.387Z,2.61
2018-12-06T21:43:57.953Z,2.59
2018-12-06T21:46:29.477Z,2.63
2018-12-06T21:49:00.027Z,2.61
2018-12-06T21:51:29.871Z,2.66
2018-12-06T21:54:00.974Z,2.68
2018-12-06T21:56:31.440Z,2.66
2018-12-06T21:59:01.906Z,2.80
2018-12-06T22:01:31.945Z,2.81
2018-12-06T22:04:02.996Z,2.75
2018-12-06T22:06:32.582Z,2.72
2018-12-06T22:09:07.974Z,2.73
2018-12-06T22:11:37.978Z,2.72
2018-12-06T22:14:10.886Z,2.68
2018-12-06T22:16:41.917Z,2.75
2018-12-06T22:19:13.095Z,2.75
2018-12-06T22:21:46.842Z,2.86
2018-12-06T22:24:17.032Z,2.86
2018-12-06T22:26:48.066Z,2.85
2018-12-06T22:29:18.155Z,2.84
2018-12-06T22:31:49.970Z,2.83
2018-12-06T22:34:20.216Z,2.94
2018-12-06T22:36:51.520Z,2.91
2018-12-06T22:39:21.279Z,2.98
2018-12-06T22:41:52.095Z,2.97
2018-12-06T22:44:23.331Z,2.93
2018-12-06T22:46:56.021Z,2.89
2018-12-06T22:49:27.241Z,2.93
2018-12-06T22:51:58.247Z,3.03
2018-12-06T22:54:29.058Z,3.05
2018-12-06T22:56:59.081Z,2.98
2018-12-06T22:59:30.334Z,2.94
2018-12-06T23:02:01.235Z,2.90
2018-12-06T23:04:32.009Z,2.98
2018-12-06T23:07:02.265Z,3.01
2018-12-06T23:09:32.392Z,2.99
2018-12-06T23:12:03.549Z,2.97
2018-12-06T23:14:33.075Z,2.98
2018-12-06T23:17:04.703Z,2.96
2018-12-06T23:19:35.124Z,2.96
2018-12-06T23:22:06.627Z,2.96
2018-12-06T23:24:38.559Z,2.98
2018-12-06T23:27:10.062Z,2.98
2018-12-06T23:29:40.744Z,3.00
2018-12-06T23:32:11.364Z,3.12
2018-12-06T23:34:42.152Z,3.11
2018-12-06T23:37:15.625Z,3.02
2018-12-06T23:40:02.468Z,3.11
2018-12-06T23:45:13.456Z,3.04
2018-12-06T23:47:45.498Z,3.08
2018-12-06T23:50:17.965Z,3.09
2018-12-06T23:52:55.147Z,3.12
2018-12-06T23:55:28.608Z,3.08
2018-12-06T23:57:59.430Z,3.08
